• Join FlightAware (Why Join?)
  • Login
  • US Flag 
10:37AM EST


 

Airport Tracker/Info


-or-


 

Live Flight TrackerFlight Track Log ✈ WAE21 ✈ 16-May-2013 ✈ KSLC - KAPA

Flight Track Log - Related Links

Times and Time Zones

All times are in EDT time to prevent confusion due to time zone crossing. See the WAE21 flight status page for this flight to view local times or setup timezone preferences in your user account.

Time Position Orientation Groundspeed Altitude Reporting Facility
EDT Latitude Longitude Course Direction KTS MPH feet Rate Location/Type
01:57AM 40.7975 -111.9767 356° North 109 125 4,800  Level Salt Lake Center
01:57AM 40.8172 -111.9786 356° North 118 136 5,400 1,200 Climbing Salt Lake Center
01:58AM 40.8347 -111.9811 354° North 110 127 6,200 1,260 Climbing Salt Lake Center
01:58AM 40.8486 -111.9850 348° North 112 129 6,700 960 Climbing Salt Lake Center
01:59AM 40.8664 -111.9853 359° North 114 131 7,200 780 Climbing Salt Lake Center
01:59AM 40.8814 -111.9878 353° North 116 133 7,500 960 Climbing Salt Lake Center
02:00AM 40.9003 -111.9897 356° North 121 139 8,200 900 Climbing Salt Lake Center
02:00AM 40.9144 -111.9908 357° North 122 140 8,400 540 Climbing Salt Lake Center
02:01AM 40.9381 -111.9944 353° North 136 157 8,800 780 Climbing Salt Lake Center
02:01AM 40.9564 -111.9964 355° North 150 173 9,200 900 Climbing Salt Lake Center
02:02AM 40.9806 -111.9989 356° North 151 174 9,700 840 Climbing Salt Lake Center
02:02AM 40.9983 -112.0019 353° North 151 174 10,100 840 Climbing Salt Lake Center
02:03AM 41.0228 -112.0047 355° North 151 174 10,600 780 Climbing Salt Lake Center
02:03AM 41.0383 -111.9969 21° North 160 184 10,900 780 Climbing Salt Lake Center
02:04AM 41.0417 -111.9636 82° East 161 185 11,400 840 Climbing Salt Lake Center
02:04AM 41.0308 -111.9483 133° Southeast 139 160 11,800 960 Climbing Salt Lake Center
02:05AM 41.0153 -111.9311 140° Southeast 149 171 12,400 960 Climbing Salt Lake Center
02:05AM 41.0028 -111.9153 136° Southeast 138 159 12,800 840 Climbing Salt Lake Center
02:06AM 40.9867 -111.8964 138° Southeast 143 165 13,300 840 Climbing Salt Lake Center
02:06AM 40.9744 -111.8794 134° Southeast 139 160 13,700 900 Climbing Salt Lake Center
02:07AM 40.9606 -111.8617 136° Southeast 138 159 14,200 840 Climbing Salt Lake Center
02:08AM 40.9264 -111.8175 136° Southeast 144 166 15,100 840 Climbing Salt Lake Center
02:09AM 40.8964 -111.7811 137° Southeast 147 169 16,000 840 Climbing Salt Lake Center
02:10AM 40.8697 -111.7383 129° Southeast 152 175 16,800 540 Climbing Salt Lake Center
02:11AM 40.8367 -111.7011 140° Southeast 159 183 17,100 120 Climbing Salt Lake Center
02:12AM 40.7972 -111.6617 143° Southeast 178 205 17,100 -60 Level Salt Lake Center
02:13AM 40.7617 -111.6081 131° Southeast 195 224 17,000 -60 Descending Salt Lake Center
02:14AM 40.7272 -111.5522 129° Southeast 197 227 17,000  Level Salt Lake Center
02:15AM 40.6950 -111.4975 128° Southeast 189 217 17,000  Level Salt Lake Center
02:16AM 40.6617 -111.4428 129° Southeast 191 220 17,000  Level Salt Lake Center
02:17AM 40.6322 -111.3903 126° Southeast 180 207 17,000  Level Salt Lake Center
02:18AM 40.6033 -111.3369 125° Southeast 178 205 17,000  Level Salt Lake Center
02:19AM 40.5739 -111.2842 126° Southeast 178 205 17,000  Level Salt Lake Center
02:20AM 40.5792 -111.2108 85° East 202 232 17,000  Level Salt Lake Center
02:21AM 40.5606 -111.1453 110° East 192 221 17,100  Climbing Salt Lake Center
02:22AM 40.5392 -111.0819 114° Southeast 190 219 17,000 -60 Descending Salt Lake Center
02:23AM 40.5189 -111.0206 113° Southeast 186 214 17,000  Level Salt Lake Center
02:24AM 40.4967 -110.9589 115° Southeast 187 215 17,000  Level Salt Lake Center
02:25AM 40.4761 -110.8969 114° Southeast 185 213 17,000  Level Salt Lake Center
02:26AM 40.4494 -110.8244 116° Southeast 185 213 17,000  Level Salt Lake Center
02:27AM 40.4278 -110.7631 115° Southeast 187 215 17,000  Level Salt Lake Center
02:28AM 40.4036 -110.7053 119° Southeast 183 211 17,000  Level Salt Lake Center
02:29AM 40.3728 -110.6494 126° Southeast 188 216 17,000  Level Salt Lake Center
02:30AM 40.3436 -110.5958 126° Southeast 183 211 17,000  Level Salt Lake Center
02:31AM 40.3142 -110.5392 124° Southeast 183 211 17,000  Level Salt Lake Center
02:32AM 40.2944 -110.4800 114° Southeast 184 212 17,000  Level Salt Lake Center
02:33AM 40.2733 -110.4222 116° Southeast 185 213 17,000  Level Salt Lake Center
02:34AM 40.2467 -110.3581 119° Southeast 181 208 17,000  Level Salt Lake Center
02:35AM 40.2233 -110.3033 119° Southeast 180 207 17,000  Level Salt Lake Center
02:36AM 40.1972 -110.2464 121° Southeast 187 215 17,000  Level Salt Lake Center
02:37AM 40.1672 -110.1775 120° Southeast 195 224 17,000  Level Salt Lake Center
02:38AM 40.1475 -110.1156 113° Southeast 194 223 17,000  Level Salt Lake Center
02:39AM 40.1592 -110.0444 78° East 205 236 17,000 60 Level Salt Lake Center
02:40AM 40.1514 -109.9753 98° East 201 231 17,200 120 Climbing Salt Lake Center
02:42AM 40.1389 -109.8486 97° East 197 227 17,400 -60 Climbing Denver Center
02:44AM 40.1328 -109.7363 94° East  Level FlightAware Approximate
02:47AM 40.1197 -109.4622 90° East 208 239 17,000  Level Denver Center
02:48AM 40.1158 -109.3886 94° East 212 244 17,000  Level Denver Center
02:49AM 40.1094 -109.3156 96° East 211 243 17,000 -60 Level Denver Center
02:50AM 40.1022 -109.2294 96° East 214 246 16,900 -60 Descending Denver Center
02:51AM 40.1167 -109.2592 90° East  Level FlightAware Approximate
02:51AM 40.0983 -109.1564 94° East 212 244 16,900  Level Denver Center
02:52AM 40.1167 -109.1909 90° East  Level FlightAware Approximate
02:52AM 40.0925 -109.0839 96° East 210 242 16,900  Level Denver Center
02:52AM 40.0900 -109.0600 98° East 210 242 16,900  Level Salt Lake Center
02:53AM 40.0878 -108.9858 92° East 212 244 16,900  Level Salt Lake Center
02:54AM 40.0864 -108.8983 91° East 215 247 16,900  Level Salt Lake Center
02:55AM 40.0861 -108.8492 90° East 213 245 16,900  Level Denver Center
02:56AM 40.0836 -108.7744 92° East 213 245 16,900  Level Denver Center
02:57AM 40.0850 -108.6875 89° East 213 245 16,900  Level Denver Center
02:58AM 40.0842 -108.6136 91° East 213 245 16,900  Level Denver Center
02:59AM 40.0836 -108.5389 91° East 214 246 16,900  Level Denver Center
03:00AM 40.0825 -108.4525 91° East 213 245 16,900  Level Denver Center
03:01AM 40.0792 -108.3792 93° East 211 243 16,900  Level Denver Center
03:02AM 40.0775 -108.3064 92° East 210 242 16,900  Level Denver Center
03:03AM 40.0767 -108.2331 91° East 211 243 16,900  Level Denver Center
03:04AM 40.0733 -108.1481 93° East 210 242 16,900  Level Denver Center
03:05AM 40.0731 -108.0744 90° East 212 244 16,900  Level Denver Center
03:06AM 40.0689 -108.0014 94° East 213 245 16,900  Level Denver Center
03:07AM 40.0667 -107.9153 92° East 212 244 16,900  Level Denver Center
03:08AM 40.0619 -107.8417 95° East 212 244 16,900  Level Denver Center
03:09AM 40.0628 -107.7667 89° East 215 247 16,900  Level Denver Center
03:10AM 40.0597 -107.6911 93° East 218 251 16,900  Level Denver Center
03:11AM 40.0544 -107.6033 94° East 218 251 16,900  Level Denver Center
03:12AM 40.0511 -107.5275 93° East 220 253 16,900  Level Denver Center
03:13AM 40.0475 -107.4550 94° East 213 245 16,900  Level Denver Center
03:14AM 40.0431 -107.3686 94° East 212 244 16,900  Level Denver Center
03:15AM 40.0319 -107.2972 101° East 209 241 16,900  Level Denver Center
03:16AM 40.0206 -107.2258 102° East 211 243 16,900  Level Denver Center
03:17AM 40.0139 -107.1653 98° East 214 246 16,900  Level Denver Center
03:18AM 40.0075 -107.0761 95° East 210 242 16,900  Level Denver Center
03:19AM 40.0086 -106.9975 89° East 215 247 16,900  Level Denver Center
03:20AM 40.0103 -106.9214 88° East 211 243 16,900  Level Denver Center
03:21AM 40.0114 -106.8317 89° East 207 238 17,000  Climbing Denver Center
03:22AM 40.0097 -106.7542 92° East 211 243 17,000  Level Denver Center
03:23AM 40.0086 -106.6756 91° East 216 249 17,000  Level Denver Center
03:24AM 40.0067 -106.5978 92° East 215 247 17,000  Level Denver Center
03:25AM 40.0039 -106.5194 93° East 215 247 17,000  Level Denver Center
03:26AM 39.9975 -106.4419 96° East 215 247 17,000  Level Denver Center
03:27AM 39.9881 -106.3656 99° East 215 247 17,000  Level Denver Center
03:28AM 39.9725 -106.2933 106° East 211 243 17,000  Level Denver Center
03:29AM 39.9561 -106.2194 106° East 210 242 17,000  Level Denver Center
03:30AM 39.9425 -106.1458 104° East 209 241 17,000  Level Denver Center
03:31AM 39.9283 -106.0739 104° East 208 239 17,000  Level Denver Center
03:32AM 39.9108 -106.0031 108° East 206 237 17,000  Level Denver Center
03:33AM 39.8989 -105.9297 102° East 206 237 17,000 -120 Level Denver Center
03:34AM 39.8911 -105.8556 98° East 207 238 16,800 -540 Descending Denver Center
03:35AM 39.8775 -105.7708 102° East 221 254 16,000 -420 Descending Denver Center
03:36AM 39.8658 -105.6889 100° East 215 247 16,000  Level Denver Center
03:37AM 39.8614 -105.6214 95° East 190 219 16,100  Climbing Denver Center
03:38AM 39.8556 -105.5547 96° East 186 214 16,000  Descending Denver Center
03:39AM 39.8472 -105.4897 99° East 183 211 16,100 -300 Climbing Denver Center
03:40AM 39.8350 -105.4189 103° East 198 228 15,500 -780 Descending Denver Center
03:41AM 39.8206 -105.3439 104° East 212 244 14,600 -900 Descending Denver Center
03:42AM 39.8058 -105.2686 104° East 215 247 13,700 -960 Descending Denver Center
03:43AM 39.7919 -105.1958 104° East 210 242 12,700 -1,020 Descending Denver Center
03:44AM 39.7767 -105.1208 105° East 214 246 11,700 -960 Descending Denver Center
03:45AM 39.7603 -105.0500 107° East 208 239 10,800 -1,080 Descending Denver Center
03:47AM 39.7350 -104.9811 115° Southeast 199 229 9,600 -840 Descending Denver Center
03:48AM 39.7278 -104.9228 99° East 168 193 9,200 -720 Descending Denver Center
03:49AM 39.7089 -104.8800 120° Southeast 141 162 8,200 -900 Descending Denver Center
03:50AM 39.6792 -104.8556 148° Southeast 132 152 7,500 -600 Descending Denver Center
03:51AM 39.6469 -104.8539 178° South 119 137 7,000 -540 Descending Denver Center
03:52AM 39.6144 -104.8533 179° South 118 136 6,500 -600 Descending Denver Center
03:53AM 39.5783 -104.8514 178° South 120 138 5,900 -600 Descending Denver Center
03:55AM 39.5701 -104.8493 58° Northeast  Level Estimated
04:02AM 39.5701 -104.8493 235° Southwest  Level Estimated
04:03AM 39.5701 -104.8493 235° Southwest  Level Estimated